createdAt,value
2022-10-27T00:00:22.356Z,2.93
2022-10-27T00:02:50.400Z,3.20
2022-10-27T00:05:18.243Z,2.83
2022-10-27T00:07:46.018Z,2.90
2022-10-27T00:10:15.385Z,2.90
2022-10-27T00:12:43.424Z,3.00
2022-10-27T00:15:12.424Z,2.90
2022-10-27T00:17:40.168Z,3.47
2022-10-27T00:20:09.482Z,2.83
2022-10-27T00:22:37.443Z,3.33
2022-10-27T00:25:06.069Z,2.67
2022-10-27T00:27:35.164Z,3.43
2022-10-27T00:30:02.882Z,3.20
2022-10-27T00:32:30.586Z,2.80
2022-10-27T00:34:58.464Z,3.10
2022-10-27T00:37:26.174Z,3.20
2022-10-27T00:39:53.883Z,3.00
2022-10-27T00:42:21.684Z,2.93
2022-10-27T00:44:50.813Z,2.73
2022-10-27T00:47:23.554Z,2.70
2022-10-27T00:49:58.481Z,2.70
2022-10-27T00:52:31.696Z,3.10
2022-10-27T00:55:03.924Z,2.90
2022-10-27T00:57:33.788Z,3.37
2022-10-27T01:00:05.094Z,3.50
2022-10-27T01:02:33.598Z,2.87
2022-10-27T01:05:06.125Z,3.50
2022-10-27T01:07:34.806Z,2.93
2022-10-27T01:10:02.922Z,2.50
2022-10-27T01:12:30.627Z,2.30
2022-10-27T01:14:58.354Z,2.70
2022-10-27T01:17:41.829Z,2.70
2022-10-27T01:20:46.231Z,2.63
2022-10-27T01:23:22.709Z,2.60
2022-10-27T01:26:26.455Z,2.67
2022-10-27T01:29:38.243Z,3.07
2022-10-27T01:32:17.848Z,3.30
2022-10-27T01:34:48.735Z,2.90
2022-10-27T01:37:21.553Z,3.43
2022-10-27T01:39:54.630Z,2.93
2022-10-27T01:42:27.576Z,2.97
2022-10-27T01:44:57.617Z,3.10
2022-10-27T01:47:28.377Z,3.10
2022-10-27T01:49:56.087Z,3.23
2022-10-27T01:52:44.167Z,2.90
2022-10-27T01:55:16.716Z,3.00
2022-10-27T01:58:02.768Z,3.27
2022-10-27T02:00:34.613Z,3.20
2022-10-27T02:03:11.093Z,2.93
2022-10-27T02:05:45.888Z,2.90
2022-10-27T02:08:21.428Z,2.80
2022-10-27T02:10:57.391Z,2.70
2022-10-27T02:13:26.059Z,2.47
2022-10-27T02:15:58.638Z,2.40
2022-10-27T02:18:31.853Z,1.80
2022-10-27T02:23:31.933Z,2.40
2022-10-27T02:26:04.946Z,2.40
2022-10-27T02:28:37.868Z,2.20
2022-10-27T02:31:07.576Z,2.47
2022-10-27T02:33:37.203Z,2.67
2022-10-27T02:36:05.408Z,2.57
2022-10-27T02:38:33.104Z,2.70
2022-10-27T02:41:00.820Z,2.70
2022-10-27T02:43:28.558Z,2.90
2022-10-27T02:45:56.259Z,2.27
2022-10-27T02:48:24.011Z,2.50
2022-10-27T02:50:53.061Z,2.87
2022-10-27T02:53:20.763Z,2.60
2022-10-27T02:55:48.487Z,2.63
2022-10-27T02:58:16.279Z,2.60
2022-10-27T03:00:44.032Z,3.43
2022-10-27T03:03:12.037Z,3.03
2022-10-27T03:05:39.737Z,3.07
2022-10-27T03:08:09.163Z,2.70
2022-10-27T03:10:36.875Z,3.00
2022-10-27T03:13:04.599Z,3.57
2022-10-27T03:15:32.340Z,3.47
2022-10-27T03:18:00.021Z,2.83
2022-10-27T03:20:27.986Z,3.40
2022-10-27T03:22:55.743Z,2.87
2022-10-27T03:25:24.901Z,3.10
2022-10-27T03:27:53.683Z,2.90
2022-10-27T03:30:21.500Z,4.10
2022-10-27T03:32:50.904Z,2.97
2022-10-27T03:35:20.111Z,3.60
2022-10-27T03:37:55.336Z,2.80
2022-10-27T03:40:24.601Z,3.10
2022-10-27T03:42:54.036Z,4.67
2022-10-27T03:45:21.803Z,6.80
2022-10-27T03:47:49.541Z,4.20
2022-10-27T03:50:17.471Z,3.00
2022-10-27T03:52:45.177Z,2.60
2022-10-27T03:55:12.886Z,2.50
2022-10-27T03:57:41.937Z,2.40
2022-10-27T04:00:11.131Z,2.90
2022-10-27T04:02:41.418Z,2.60
2022-10-27T04:05:10.054Z,3.00
2022-10-27T04:07:38.251Z,3.23
2022-10-27T04:10:06.855Z,3.13
2022-10-27T04:12:34.555Z,2.77
2022-10-27T04:15:03.786Z,2.80
2022-10-27T04:17:31.493Z,2.63
2022-10-27T04:19:59.143Z,2.80
2022-10-27T04:22:26.808Z,3.10
2022-10-27T04:24:54.554Z,2.77
2022-10-27T04:27:22.255Z,2.70
2022-10-27T04:29:49.959Z,2.40
2022-10-27T04:32:19.079Z,2.47
2022-10-27T04:34:46.800Z,2.90
2022-10-27T04:37:14.712Z,2.60
2022-10-27T04:39:42.426Z,2.70
2022-10-27T04:42:11.773Z,2.33
2022-10-27T04:44:39.499Z,2.50
2022-10-27T04:47:07.183Z,2.20
2022-10-27T04:49:36.236Z,2.10
2022-10-27T04:52:03.969Z,2.40
2022-10-27T04:54:31.820Z,2.70
2022-10-27T04:56:59.547Z,2.23
2022-10-27T04:59:27.317Z,2.50
2022-10-27T05:01:55.106Z,2.50
2022-10-27T05:04:22.904Z,2.57
2022-10-27T05:06:51.964Z,2.80
2022-10-27T05:09:19.682Z,2.50
2022-10-27T05:11:47.371Z,2.63
2022-10-27T05:14:15.087Z,2.47
2022-10-27T05:16:42.783Z,1.80
2022-10-27T05:19:10.454Z,2.27
2022-10-27T05:21:38.139Z,2.20
2022-10-27T05:24:07.688Z,2.43
2022-10-27T05:26:37.874Z,3.00
2022-10-27T05:29:05.947Z,2.40
2022-10-27T05:31:33.749Z,2.33
2022-10-27T05:34:01.434Z,2.33
2022-10-27T05:36:29.117Z,2.60
2022-10-27T05:38:56.849Z,2.70
2022-10-27T05:41:25.959Z,2.60
2022-10-27T05:43:53.776Z,3.03
2022-10-27T05:46:21.454Z,2.70
2022-10-27T05:48:49.249Z,3.00
2022-10-27T05:51:19.330Z,3.10
2022-10-27T05:53:51.453Z,3.20
2022-10-27T05:56:19.168Z,3.30
2022-10-27T05:58:48.179Z,3.23
2022-10-27T06:01:16.050Z,2.67
2022-10-27T06:03:43.776Z,2.77
2022-10-27T06:06:11.468Z,3.00
2022-10-27T06:08:39.175Z,2.57
2022-10-27T06:11:06.918Z,2.50
2022-10-27T06:13:34.603Z,1.97
2022-10-27T06:16:03.733Z,2.00
2022-10-27T06:18:31.459Z,2.00
2022-10-27T06:20:59.200Z,1.80
2022-10-27T06:23:27.012Z,2.60
2022-10-27T06:25:58.836Z,2.40
2022-10-27T06:28:26.944Z,2.50
2022-10-27T06:30:55.057Z,2.60
2022-10-27T06:33:24.098Z,2.37
2022-10-27T06:35:51.804Z,2.60
2022-10-27T06:38:19.487Z,2.80
2022-10-27T06:40:47.188Z,2.63
2022-10-27T06:43:15.663Z,2.57
2022-10-27T06:45:47.867Z,2.50
2022-10-27T06:48:15.725Z,2.60
2022-10-27T06:50:44.784Z,2.90
2022-10-27T06:53:12.495Z,2.90
2022-10-27T06:55:40.224Z,3.27
2022-10-27T06:58:07.900Z,3.27
2022-10-27T07:00:37.049Z,3.70
2022-10-27T07:05:41.718Z,2.90
2022-10-27T07:08:10.754Z,3.10
2022-10-27T07:10:38.504Z,3.17
2022-10-27T07:13:06.176Z,3.20
2022-10-27T07:15:37.009Z,3.43
2022-10-27T07:18:06.868Z,3.87
2022-10-27T07:20:35.986Z,3.50
2022-10-27T07:23:04.521Z,3.20
2022-10-27T07:25:34.977Z,3.43
2022-10-27T07:28:04.752Z,4.63
2022-10-27T07:30:34.531Z,4.60
2022-10-27T07:33:02.200Z,3.80
2022-10-27T07:35:30.380Z,6.93
2022-10-27T07:37:58.676Z,5.60
2022-10-27T07:40:28.976Z,6.03
2022-10-27T07:43:07.115Z,5.50
2022-10-27T07:45:36.794Z,5.93
2022-10-27T07:48:05.048Z,5.43
2022-10-27T07:50:34.029Z,5.10
2022-10-27T07:53:02.992Z,4.70
2022-10-27T07:55:32.843Z,4.90
2022-10-27T07:58:03.750Z,4.33
2022-10-27T08:00:34.375Z,4.47
2022-10-27T08:03:03.196Z,4.40
2022-10-27T08:05:31.284Z,3.87
2022-10-27T08:07:59.928Z,4.67
2022-10-27T08:10:28.500Z,4.13
2022-10-27T08:12:56.167Z,4.03
2022-10-27T08:15:25.308Z,4.13
2022-10-27T08:17:53.813Z,4.17
2022-10-27T08:20:22.502Z,3.97
2022-10-27T08:22:55.871Z,4.07
2022-10-27T08:25:23.572Z,3.50
2022-10-27T08:27:51.613Z,3.80
2022-10-27T08:30:20.151Z,3.80
2022-10-27T08:32:50.355Z,3.90
2022-10-27T08:35:18.843Z,3.60
2022-10-27T08:37:46.588Z,4.10
2022-10-27T08:40:14.647Z,3.70
2022-10-27T08:42:53.692Z,3.50
2022-10-27T08:45:27.432Z,3.60
2022-10-27T08:47:58.369Z,4.17
2022-10-27T08:50:28.721Z,3.77
2022-10-27T08:53:04.717Z,3.50
2022-10-27T08:55:36.887Z,3.63
2022-10-27T08:58:11.380Z,3.53
2022-10-27T09:00:49.441Z,3.47
2022-10-27T09:03:46.572Z,3.33
2022-10-27T09:06:19.899Z,2.93
2022-10-27T09:08:58.759Z,3.10
2022-10-27T09:11:38.401Z,2.60
2022-10-27T09:14:23.641Z,2.63
2022-10-27T09:16:56.044Z,2.90
2022-10-27T09:19:30.335Z,2.87
2022-10-27T09:21:58.752Z,2.73
2022-10-27T09:24:30.326Z,3.00
2022-10-27T09:27:00.220Z,2.80
2022-10-27T09:29:30.906Z,2.67
2022-10-27T09:32:01.416Z,2.80
2022-10-27T09:34:37.611Z,2.67
2022-10-27T09:37:13.564Z,2.90
2022-10-27T09:39:47.336Z,2.83
2022-10-27T09:42:15.905Z,2.80
2022-10-27T09:44:48.064Z,2.60
2022-10-27T09:47:15.840Z,2.70
2022-10-27T09:49:48.385Z,2.53
2022-10-27T09:52:21.000Z,2.67
2022-10-27T09:54:55.351Z,2.67
2022-10-27T09:57:28.985Z,2.57
2022-10-27T10:00:00.618Z,2.57
2022-10-27T10:02:31.404Z,2.30
2022-10-27T10:05:01.456Z,2.50
2022-10-27T10:07:32.863Z,2.40
2022-10-27T10:10:07.128Z,2.47
2022-10-27T10:12:35.213Z,2.57
2022-10-27T10:15:20.548Z,2.43
2022-10-27T10:17:57.554Z,2.60
2022-10-27T10:23:21.669Z,2.73
2022-10-27T10:25:50.472Z,2.20
2022-10-27T10:28:24.894Z,2.20
2022-10-27T10:30:54.452Z,2.27
2022-10-27T10:33:25.411Z,2.10
2022-10-27T10:35:55.145Z,2.40
2022-10-27T10:38:31.481Z,2.70
2022-10-27T10:41:07.676Z,1.97
2022-10-27T10:43:35.414Z,2.13
2022-10-27T10:46:04.213Z,1.67
2022-10-27T10:48:38.792Z,2.10
2022-10-27T10:51:09.712Z,2.13
2022-10-27T10:53:44.063Z,2.00
2022-10-27T10:56:23.533Z,2.00
2022-10-27T10:58:56.631Z,2.00
2022-10-27T11:01:24.509Z,1.90
2022-10-27T11:03:55.780Z,2.03
2022-10-27T11:06:24.880Z,1.87
2022-10-27T11:08:58.089Z,2.03
2022-10-27T11:11:29.752Z,2.10
2022-10-27T11:14:01.307Z,1.87
2022-10-27T11:16:32.209Z,2.03
2022-10-27T11:19:08.627Z,1.90
2022-10-27T11:21:41.909Z,1.85
2022-10-27T11:24:16.583Z,2.00
2022-10-27T11:27:03.617Z,2.17
2022-10-27T11:29:40.502Z,2.42
2022-10-27T11:32:15.963Z,1.85
2022-10-27T11:34:52.241Z,2.05
2022-10-27T11:37:29.776Z,1.77
2022-10-27T11:40:03.412Z,2.10
2022-10-27T11:42:39.876Z,1.88
2022-10-27T11:45:16.822Z,1.63
2022-10-27T11:47:47.455Z,1.90
2022-10-27T11:50:21.319Z,1.90
2022-10-27T11:52:53.498Z,2.08
2022-10-27T11:55:25.712Z,1.88
2022-10-27T11:58:00.736Z,1.77
2022-10-27T12:00:30.363Z,2.10
2022-10-27T12:03:17.987Z,2.00
2022-10-27T12:05:49.426Z,1.60
2022-10-27T12:08:25.546Z,1.60
2022-10-27T12:11:02.767Z,1.75
2022-10-27T12:13:35.277Z,1.92
2022-10-27T12:16:09.136Z,2.05
2022-10-27T12:18:43.512Z,1.73
2022-10-27T12:21:15.987Z,1.60
2022-10-27T12:23:49.459Z,1.73
2022-10-27T12:26:22.999Z,1.83
2022-10-27T12:28:51.564Z,1.80
2022-10-27T12:31:24.127Z,1.73
2022-10-27T12:33:56.821Z,1.77
2022-10-27T12:39:19.491Z,2.00
2022-10-27T12:41:53.269Z,2.00
2022-10-27T12:44:32.116Z,1.63
2022-10-27T12:47:14.772Z,1.80
2022-10-27T12:49:52.943Z,1.83
2022-10-27T12:52:23.580Z,1.80
2022-10-27T12:55:18.003Z,1.55
2022-10-27T12:57:55.121Z,1.70
2022-10-27T13:03:21.846Z,1.83
2022-10-27T13:06:08.791Z,2.00
2022-10-27T13:09:07.738Z,1.67
2022-10-27T13:12:08.955Z,1.90
2022-10-27T13:15:27.215Z,1.70
2022-10-27T13:18:05.084Z,1.65
2022-10-27T13:20:49.681Z,1.73
2022-10-27T13:23:25.183Z,1.90
2022-10-27T13:25:59.675Z,1.73
2022-10-27T13:28:34.479Z,1.95
2022-10-27T13:31:06.032Z,2.00
2022-10-27T13:33:36.918Z,2.25
2022-10-27T13:36:17.320Z,1.70
2022-10-27T13:38:45.280Z,1.63
2022-10-27T13:41:33.040Z,1.70
2022-10-27T13:44:00.748Z,1.75
2022-10-27T13:47:11.296Z,1.90
2022-10-27T13:49:57.163Z,2.00
2022-10-27T13:52:28.953Z,2.10
2022-10-27T13:54:59.599Z,1.75
2022-10-27T13:57:46.189Z,1.75
2022-10-27T14:00:18.061Z,1.90
2022-10-27T14:02:55.654Z,1.70
2022-10-27T14:05:32.551Z,1.63
2022-10-27T14:08:01.894Z,1.63
2022-10-27T14:10:30.459Z,1.80
2022-10-27T14:12:59.208Z,1.73
2022-10-27T14:15:28.592Z,1.75
2022-10-27T14:17:58.167Z,1.70
2022-10-27T14:20:30.248Z,1.83
2022-10-27T14:23:07.854Z,1.80
2022-10-27T14:25:35.821Z,1.63
2022-10-27T14:28:14.985Z,1.90
2022-10-27T14:30:43.190Z,2.00
2022-10-27T14:33:23.239Z,1.60
2022-10-27T14:36:06.627Z,1.80
2022-10-27T14:38:34.394Z,1.70
2022-10-27T14:41:02.778Z,1.80
2022-10-27T14:43:32.904Z,1.60
2022-10-27T14:46:02.684Z,1.55
2022-10-27T14:48:33.150Z,1.90
2022-10-27T14:51:11.785Z,1.73
2022-10-27T14:53:39.768Z,1.67
2022-10-27T14:56:17.860Z,5.55
2022-10-27T14:58:54.617Z,9.95
2022-10-27T15:01:27.658Z,10.70
2022-10-27T15:03:58.578Z,10.57
2022-10-27T15:06:32.393Z,7.53
2022-10-27T15:09:00.315Z,6.13
2022-10-27T15:11:28.322Z,4.45
2022-10-27T15:13:56.773Z,3.77
2022-10-27T15:16:29.138Z,2.93
2022-10-27T15:18:56.980Z,2.90
2022-10-27T15:21:28.130Z,2.57
2022-10-27T15:24:02.265Z,2.20
2022-10-27T15:26:31.384Z,2.37
2022-10-27T15:28:59.807Z,2.40
2022-10-27T15:31:27.931Z,2.33
2022-10-27T15:33:59.908Z,2.10
2022-10-27T15:36:29.259Z,2.33
2022-10-27T15:38:57.039Z,2.23
2022-10-27T15:41:27.143Z,1.93
2022-10-27T15:44:16.897Z,2.07
2022-10-27T15:46:45.995Z,2.10
2022-10-27T15:49:28.166Z,2.23
2022-10-27T15:51:59.234Z,2.27
2022-10-27T15:54:34.235Z,2.20
2022-10-27T15:57:03.083Z,2.20
2022-10-27T15:59:32.821Z,2.13
2022-10-27T16:02:21.415Z,1.93
2022-10-27T16:04:50.141Z,1.97
2022-10-27T16:07:33.212Z,5.63
2022-10-27T16:10:01.215Z,5.03
2022-10-27T16:12:41.767Z,3.83
2022-10-27T16:15:17.603Z,2.33
2022-10-27T16:17:48.456Z,2.30
2022-10-27T16:20:18.975Z,2.23
2022-10-27T16:22:48.203Z,2.10
2022-10-27T16:25:17.229Z,2.20
2022-10-27T16:27:45.283Z,2.30
2022-10-27T16:30:17.629Z,2.40
2022-10-27T16:32:46.459Z,1.90
2022-10-27T16:35:15.247Z,2.33
2022-10-27T16:37:43.326Z,2.00
2022-10-27T16:40:14.790Z,2.20
2022-10-27T16:42:45.812Z,2.47
2022-10-27T16:45:14.909Z,2.50
2022-10-27T16:47:43.085Z,2.40
2022-10-27T16:50:11.400Z,2.47
2022-10-27T16:52:39.283Z,2.40
2022-10-27T16:55:09.970Z,2.33
2022-10-27T16:57:41.006Z,2.50
2022-10-27T17:00:14.334Z,2.30
2022-10-27T17:02:42.255Z,1.97
2022-10-27T17:05:10.457Z,2.10
2022-10-27T17:07:39.031Z,2.13
2022-10-27T17:10:07.765Z,2.20
2022-10-27T17:12:35.466Z,2.07
2022-10-27T17:15:05.327Z,2.17
2022-10-27T17:17:33.029Z,2.13
2022-10-27T17:20:00.882Z,2.40
2022-10-27T17:22:28.617Z,2.20
2022-10-27T17:24:56.346Z,2.03
2022-10-27T17:27:24.023Z,2.17
2022-10-27T17:29:51.887Z,2.30
2022-10-27T17:32:20.970Z,2.30
2022-10-27T17:34:48.632Z,1.90
2022-10-27T17:37:16.323Z,2.30
2022-10-27T17:39:44.000Z,2.00
2022-10-27T17:42:13.075Z,2.00
2022-10-27T17:44:40.832Z,2.07
2022-10-27T17:47:08.550Z,2.37
2022-10-27T17:49:37.547Z,2.10
2022-10-27T17:52:05.513Z,2.27
2022-10-27T17:54:33.279Z,2.30
2022-10-27T17:57:01.038Z,2.00
2022-10-27T17:59:29.385Z,2.10
2022-10-27T18:01:57.270Z,2.40
2022-10-27T18:04:25.044Z,2.00
2022-10-27T18:06:54.089Z,2.30
2022-10-27T18:09:21.790Z,2.00
2022-10-27T18:11:49.548Z,2.20
2022-10-27T18:14:18.751Z,2.17
2022-10-27T18:16:46.484Z,2.00
2022-10-27T18:19:15.774Z,1.80
2022-10-27T18:21:45.098Z,2.13
2022-10-27T18:24:17.024Z,2.03
2022-10-27T18:26:47.956Z,2.13
2022-10-27T18:29:17.780Z,2.00
2022-10-27T18:31:47.472Z,1.90
2022-10-27T18:34:16.834Z,2.10
2022-10-27T18:36:45.620Z,2.30
2022-10-27T18:39:17.163Z,2.10
2022-10-27T18:41:45.361Z,2.20
2022-10-27T18:44:13.448Z,2.10
2022-10-27T18:46:41.146Z,2.20
2022-10-27T18:49:15.887Z,2.13
2022-10-27T18:51:44.169Z,2.60
2022-10-27T18:54:13.453Z,2.20
2022-10-27T18:56:42.733Z,2.30
2022-10-27T18:59:13.136Z,2.50
2022-10-27T19:01:42.045Z,2.27
2022-10-27T19:04:09.957Z,2.50
2022-10-27T19:06:37.972Z,2.43
2022-10-27T19:09:06.192Z,2.50
2022-10-27T19:11:36.530Z,2.70
2022-10-27T19:14:06.382Z,2.20
2022-10-27T19:16:34.112Z,2.40
2022-10-27T19:19:02.416Z,2.50
2022-10-27T19:21:30.949Z,2.63
2022-10-27T19:24:03.099Z,2.67
2022-10-27T19:26:32.314Z,2.50
2022-10-27T19:29:00.600Z,2.40
2022-10-27T19:31:33.169Z,2.40
2022-10-27T19:34:01.115Z,2.23
2022-10-27T19:36:30.996Z,2.23
2022-10-27T19:38:59.865Z,2.50
2022-10-27T19:41:29.883Z,2.20
2022-10-27T19:43:58.387Z,2.00
2022-10-27T19:46:27.404Z,2.10
2022-10-27T19:48:58.274Z,2.40
2022-10-27T19:51:28.264Z,2.33
2022-10-27T19:53:57.653Z,2.13
2022-10-27T19:56:27.179Z,2.20
2022-10-27T19:58:58.109Z,2.40
2022-10-27T20:01:27.497Z,2.63
2022-10-27T20:03:56.898Z,2.60
2022-10-27T20:06:24.908Z,3.23
2022-10-27T20:08:56.230Z,2.67
2022-10-27T20:11:26.190Z,2.37
2022-10-27T20:13:55.443Z,2.20
2022-10-27T20:16:27.544Z,1.97
2022-10-27T20:19:01.250Z,2.10
2022-10-27T20:21:29.655Z,2.37
2022-10-27T20:23:57.953Z,1.93
2022-10-27T20:26:29.777Z,2.23
2022-10-27T20:28:58.395Z,2.40
2022-10-27T20:31:26.149Z,3.30
2022-10-27T20:33:53.966Z,3.40
2022-10-27T20:36:23.199Z,3.20
2022-10-27T20:38:51.139Z,3.33
2022-10-27T20:41:20.703Z,2.80
2022-10-27T20:43:49.473Z,3.30
2022-10-27T20:46:17.187Z,3.47
2022-10-27T20:48:44.883Z,3.33
2022-10-27T20:51:15.087Z,3.70
2022-10-27T20:53:44.582Z,3.50
2022-10-27T20:56:15.959Z,3.33
2022-10-27T20:58:44.720Z,3.13
2022-10-27T21:01:16.615Z,3.30
2022-10-27T21:03:44.636Z,3.37
2022-10-27T21:06:12.304Z,3.10
2022-10-27T21:08:40.005Z,3.20
2022-10-27T21:11:09.090Z,3.33
2022-10-27T21:13:36.754Z,3.33
2022-10-27T21:16:04.467Z,3.60
2022-10-27T21:18:32.177Z,3.70
2022-10-27T21:20:59.815Z,3.90
2022-10-27T21:23:27.551Z,3.50
2022-10-27T21:25:55.276Z,3.50
2022-10-27T21:28:24.387Z,3.23
2022-10-27T21:30:52.091Z,3.10
2022-10-27T21:33:19.787Z,3.17
2022-10-27T21:35:49.756Z,3.33
2022-10-27T21:38:17.456Z,2.90
2022-10-27T21:40:45.108Z,3.10
2022-10-27T21:43:12.855Z,3.00
2022-10-27T21:45:41.964Z,3.20
2022-10-27T21:48:09.692Z,2.93
2022-10-27T21:50:38.565Z,3.00
2022-10-27T21:53:06.272Z,3.20
2022-10-27T21:55:33.990Z,3.20
2022-10-27T21:58:01.739Z,3.27
2022-10-27T22:00:29.490Z,3.27
2022-10-27T22:02:58.555Z,3.10
2022-10-27T22:05:26.295Z,3.10
2022-10-27T22:07:54.683Z,3.00
2022-10-27T22:10:22.543Z,3.10
2022-10-27T22:12:50.421Z,3.73
2022-10-27T22:15:18.386Z,3.23
2022-10-27T22:17:46.072Z,3.33
2022-10-27T22:20:15.296Z,3.07
2022-10-27T22:22:43.006Z,3.10
2022-10-27T22:25:11.191Z,2.60
2022-10-27T22:27:38.908Z,3.23
2022-10-27T22:30:08.098Z,2.97
2022-10-27T22:32:35.767Z,3.13
2022-10-27T22:35:03.494Z,3.20
2022-10-27T22:37:32.520Z,3.20
2022-10-27T22:40:00.201Z,3.60
2022-10-27T22:42:27.904Z,3.57
2022-10-27T22:44:55.558Z,3.10
2022-10-27T22:47:23.266Z,3.13
2022-10-27T22:49:53.116Z,3.03
2022-10-27T22:52:23.218Z,3.47
2022-10-27T22:54:52.259Z,3.07
2022-10-27T22:57:19.959Z,2.83
2022-10-27T23:02:20.373Z,3.57
2022-10-27T23:04:48.115Z,3.43
2022-10-27T23:07:15.800Z,3.13
2022-10-27T23:09:43.468Z,3.30
2022-10-27T23:12:12.515Z,3.70
2022-10-27T23:14:40.211Z,3.33
2022-10-27T23:17:07.921Z,3.30
2022-10-27T23:19:35.601Z,3.23
2022-10-27T23:22:03.280Z,3.43
2022-10-27T23:24:31.451Z,3.73
2022-10-27T23:26:59.469Z,3.67
2022-10-27T23:29:28.556Z,3.40
2022-10-27T23:31:56.243Z,3.30
2022-10-27T23:34:23.940Z,3.23
2022-10-27T23:36:51.634Z,3.40
2022-10-27T23:39:19.330Z,3.17
2022-10-27T23:41:47.039Z,3.20
2022-10-27T23:44:14.738Z,3.17
2022-10-27T23:46:43.799Z,3.67
2022-10-27T23:49:11.554Z,3.10
2022-10-27T23:51:39.257Z,3.53
2022-10-27T23:54:07.232Z,3.33
2022-10-27T23:56:34.915Z,3.20
2022-10-27T23:59:02.625Z,3.10
